sensor_id;sensor_type;location;lat;lon;timestamp;pressure;altitude;pressure_sealevel;temperature;humidity
55858;BME280;41779;52.360;31.026;2023-12-04T00:02:02;1025.8;;;-1.4;61
55858;BME280;41779;52.360;31.026;2023-12-04T00:06:24;1025.9;;;-1.4;60.8
55858;BME280;41779;52.360;31.026;2023-12-04T00:11:38;1025.9;;;-1.4;61.1
55858;BME280;41779;52.360;31.026;2023-12-04T00:16:22;1026;;;-1.4;61.2
55858;BME280;41779;52.360;31.026;2023-12-04T00:21:22;1026;;;-1.3;61.2
55858;BME280;41779;52.360;31.026;2023-12-04T00:26:36;1026.1;;;-1.3;61.3
55858;BME280;41779;52.360;31.026;2023-12-04T00:31:50;1026.2;;;-1.3;61.4
55858;BME280;41779;52.360;31.026;2023-12-04T00:37:00;1026.3;;;-1.2;61.3
55858;BME280;41779;52.360;31.026;2023-12-04T00:41:22;1026.3;;;-1.3;61.5
55858;BME280;41779;52.360;31.026;2023-12-04T00:46:58;1026.3;;;-1.3;61.6
55858;BME280;41779;52.360;31.026;2023-12-04T00:51:28;1026.3;;;-1.4;61.6
55858;BME280;41779;52.360;31.026;2023-12-04T00:56:44;1026.4;;;-1.4;61.7
55858;BME280;41779;52.360;31.026;2023-12-04T01:01:40;1026.4;;;-1.4;61.6
55858;BME280;41779;52.360;31.026;2023-12-04T01:06:32;1026.5;;;-1.4;61.4
55858;BME280;41779;52.360;31.026;2023-12-04T01:12:02;1026.5;;;-1.4;61.3
55858;BME280;41779;52.360;31.026;2023-12-04T01:16:44;1026.6;;;-1.4;61.3
55858;BME280;41779;52.360;31.026;2023-12-04T01:22:02;1026.7;;;-1.3;61.2
55858;BME280;41779;52.360;31.026;2023-12-04T01:27:02;1026.7;;;-1.4;61.4
55858;BME280;41779;52.360;31.026;2023-12-04T01:31:26;1026.7;;;-1.4;61.5
55858;BME280;41779;52.360;31.026;2023-12-04T01:36:30;1026.7;;;-1.4;61.6
55858;BME280;41779;52.360;31.026;2023-12-04T01:42:04;1026.7;;;-1.4;61.8
55858;BME280;41779;52.360;31.026;2023-12-04T01:46:22;1026.8;;;-1.4;61.8
55858;BME280;41779;52.360;31.026;2023-12-04T01:51:30;1026.8;;;-1.4;62
55858;BME280;41779;52.360;31.026;2023-12-04T01:56:22;1026.8;;;-1.4;62.1
55858;BME280;41779;52.360;31.026;2023-12-04T02:01:22;1026.9;;;-1.4;62.2
55858;BME280;41779;52.360;31.026;2023-12-04T02:06:30;1027;;;-1.4;62.2
55858;BME280;41779;52.360;31.026;2023-12-04T02:11:54;1027;;;-1.4;62
55858;BME280;41779;52.360;31.026;2023-12-04T02:17:04;1027;;;-1.4;61.8
55858;BME280;41779;52.360;31.026;2023-12-04T02:21:38;1027;;;-1.4;61.8
55858;BME280;41779;52.360;31.026;2023-12-04T02:26:26;1027;;;-1.4;61.6
55858;BME280;41779;52.360;31.026;2023-12-04T02:31:24;1027.1;;;-1.5;61.7
55858;BME280;41779;52.360;31.026;2023-12-04T02:36:46;1027.2;;;-1.5;61.9
55858;BME280;41779;52.360;31.026;2023-12-04T02:41:26;1027.2;;;-1.4;61.7
55858;BME280;41779;52.360;31.026;2023-12-04T02:46:22;1027.2;;;-1.4;61.6
55858;BME280;41779;52.360;31.026;2023-12-04T02:51:42;1027.2;;;-1.4;61.3
55858;BME280;41779;52.360;31.026;2023-12-04T02:56:50;1027.3;;;-1.5;61.4
55858;BME280;41779;52.360;31.026;2023-12-04T03:02:00;1027.4;;;-1.6;61.4
55858;BME280;41779;52.360;31.026;2023-12-04T03:06:58;1027.4;;;-1.7;61.5
55858;BME280;41779;52.360;31.026;2023-12-04T03:11:22;1027.4;;;-1.7;61.4
55858;BME280;41779;52.360;31.026;2023-12-04T03:17:04;1027.4;;;-1.8;61.4
55858;BME280;41779;52.360;31.026;2023-12-04T03:21:32;1027.4;;;-1.9;61.6
55858;BME280;41779;52.360;31.026;2023-12-04T03:27:00;1027.4;;;-1.9;61.5
55858;BME280;41779;52.360;31.026;2023-12-04T03:31:22;1027.5;;;-2;61.8
55858;BME280;41779;52.360;31.026;2023-12-04T03:36:24;1027.6;;;-2;61.6
55858;BME280;41779;52.360;31.026;2023-12-04T03:41:30;1027.7;;;-2;61.7
55858;BME280;41779;52.360;31.026;2023-12-04T03:46:24;1027.7;;;-2;61.9
55858;BME280;41779;52.360;31.026;2023-12-04T03:51:22;1027.7;;;-1.9;61.7
55858;BME280;41779;52.360;31.026;2023-12-04T03:56:48;1027.8;;;-1.9;61.7
55858;BME280;41779;52.360;31.026;2023-12-04T04:01:52;1027.8;;;-1.9;61.6
55858;BME280;41779;52.360;31.026;2023-12-04T04:07:06;1027.8;;;-2;61.7
55858;BME280;41779;52.360;31.026;2023-12-04T04:12:04;1027.8;;;-2.1;62
55858;BME280;41779;52.360;31.026;2023-12-04T04:16:52;1027.9;;;-2.1;62.2
55858;BME280;41779;52.360;31.026;2023-12-04T04:22:04;1027.9;;;-2.1;62.2
55858;BME280;41779;52.360;31.026;2023-12-04T04:26:30;1027.9;;;-2.2;62.2
55858;BME280;41779;52.360;31.026;2023-12-04T04:31:44;1027.9;;;-2.2;62.2
55858;BME280;41779;52.360;31.026;2023-12-04T04:36:52;1027.9;;;-2.2;62.3
55858;BME280;41779;52.360;31.026;2023-12-04T04:42:02;1028;;;-2.3;62.6
55858;BME280;41779;52.360;31.026;2023-12-04T04:46:42;1028.1;;;-2.4;62.7
55858;BME280;41779;52.360;31.026;2023-12-04T04:51:28;1028.2;;;-2.3;62.8
55858;BME280;41779;52.360;31.026;2023-12-04T04:57:04;1028.2;;;-2.3;62.7
55858;BME280;41779;52.360;31.026;2023-12-04T05:01:42;1028.3;;;-2.3;62.7
55858;BME280;41779;52.360;31.026;2023-12-04T05:06:50;1028.3;;;-2.3;62.8
55858;BME280;41779;52.360;31.026;2023-12-04T05:11:22;1028.3;;;-2.4;62.9
55858;BME280;41779;52.360;31.026;2023-12-04T05:17:02;1028.3;;;-2.4;63
55858;BME280;41779;52.360;31.026;2023-12-04T05:21:28;1028.3;;;-2.4;63.2
55858;BME280;41779;52.360;31.026;2023-12-04T05:26:24;1028.3;;;-2.4;63.3
55858;BME280;41779;52.360;31.026;2023-12-04T05:31:22;1028.4;;;-2.4;63.4
55858;BME280;41779;52.360;31.026;2023-12-04T05:37:02;1028.3;;;-2.5;63.6
55858;BME280;41779;52.360;31.026;2023-12-04T05:41:34;1028.4;;;-2.4;63.6
55858;BME280;41779;52.360;31.026;2023-12-04T05:47:02;1028.5;;;-2.4;63.7
55858;BME280;41779;52.360;31.026;2023-12-04T05:52:02;1028.5;;;-2.4;63.6
55858;BME280;41779;52.360;31.026;2023-12-04T05:56:46;1028.6;;;-2.4;63.5
55858;BME280;41779;52.360;31.026;2023-12-04T06:02:04;1028.6;;;-2.4;63.4
55858;BME280;41779;52.360;31.026;2023-12-04T06:06:46;1028.7;;;-2.4;63.3
55858;BME280;41779;52.360;31.026;2023-12-04T06:11:32;1028.7;;;-2.4;63.4
55858;BME280;41779;52.360;31.026;2023-12-04T06:16:52;1028.7;;;-2.4;63.3
55858;BME280;41779;52.360;31.026;2023-12-04T06:22:04;1028.8;;;-2.4;63.1
55858;BME280;41779;52.360;31.026;2023-12-04T06:27:00;1028.7;;;-2.4;62.9
55858;BME280;41779;52.360;31.026;2023-12-04T06:31:40;1028.8;;;-2.4;62.7
55858;BME280;41779;52.360;31.026;2023-12-04T06:37:02;1028.8;;;-2.4;62.8
55858;BME280;41779;52.360;31.026;2023-12-04T06:41:26;1028.8;;;-2.4;62.8
55858;BME280;41779;52.360;31.026;2023-12-04T06:46:41;1028.9;;;-2.4;62.8
55858;BME280;41779;52.360;31.026;2023-12-04T06:51:42;1028.9;;;-2.4;62.9
55858;BME280;41779;52.360;31.026;2023-12-04T06:56:28;1029;;;-2.2;62.8
55858;BME280;41779;52.360;31.026;2023-12-04T07:01:52;1029;;;-2.1;62.6
55858;BME280;41779;52.360;31.026;2023-12-04T07:06:50;1029;;;-2;62.4
55858;BME280;41779;52.360;31.026;2023-12-04T07:11:22;1029;;;-1.9;62.1
55858;BME280;41779;52.360;31.026;2023-12-04T07:16:22;1029;;;-1.7;61.8
55858;BME280;41779;52.360;31.026;2023-12-04T07:22:02;1028.9;;;-1.6;61.3
55858;BME280;41779;52.360;31.026;2023-12-04T07:27:06;1029;;;-1.4;61
55858;BME280;41779;52.360;31.026;2023-12-04T07:32:04;1029;;;-1.2;60.8
55858;BME280;41779;52.360;31.026;2023-12-04T07:36:22;1029;;;-1;60.8
55858;BME280;41779;52.360;31.026;2023-12-04T07:42:00;1029.1;;;-0.9;60.8
55858;BME280;41779;52.360;31.026;2023-12-04T07:46:22;1029.1;;;-0.9;61.1
55858;BME280;41779;52.360;31.026;2023-12-04T07:51:42;1029.1;;;-0.8;61.5
55858;BME280;41779;52.360;31.026;2023-12-04T07:56:50;1029.2;;;-0.7;61.7
55858;BME280;41779;52.360;31.026;2023-12-04T08:01:30;1029.2;;;-0.7;62
55858;BME280;41779;52.360;31.026;2023-12-04T08:06:30;1029.2;;;-0.7;62.4
55858;BME280;41779;52.360;31.026;2023-12-04T08:11:54;1029.2;;;-0.6;62.8
55858;BME280;41779;52.360;31.026;2023-12-04T08:17:02;1029.3;;;-0.5;62.9
55858;BME280;41779;52.360;31.026;2023-12-04T08:21:58;1029.3;;;-0.5;63.4
55858;BME280;41779;52.360;31.026;2023-12-04T08:26:56;1029.4;;;-0.4;63.4
55858;BME280;41779;52.360;31.026;2023-12-04T08:31:24;1029.4;;;-0.3;63.6
55858;BME280;41779;52.360;31.026;2023-12-04T08:36:24;1029.4;;;-0.2;63.9
55858;BME280;41779;52.360;31.026;2023-12-04T08:41:22;1029.4;;;-0.2;64
55858;BME280;41779;52.360;31.026;2023-12-04T08:46:28;1029.4;;;-0.1;64.2
55858;BME280;41779;52.360;31.026;2023-12-04T08:51:26;1029.5;;;-0.1;64.4
55858;BME280;41779;52.360;31.026;2023-12-04T08:56:24;1029.5;;;-0.1;64.8
55858;BME280;41779;52.360;31.026;2023-12-04T09:01:32;1029.4;;;-0.1;65.1
55858;BME280;41779;52.360;31.026;2023-12-04T09:07:04;1029.5;;;-0.1;65.3
55858;BME280;41779;52.360;31.026;2023-12-04T09:12:02;1029.4;;;-0.1;65.4
55858;BME280;41779;52.360;31.026;2023-12-04T09:16:42;1029.4;;;0;65.6
55858;BME280;41779;52.360;31.026;2023-12-04T09:22:00;1029.4;;;0;65.7
55858;BME280;41779;52.360;31.026;2023-12-04T09:26:26;1029.4;;;0;65.7
55858;BME280;41779;52.360;31.026;2023-12-04T09:31:26;1029.4;;;0;65.7
55858;BME280;41779;52.360;31.026;2023-12-04T09:37:02;1029.4;;;0;65.6
55858;BME280;41779;52.360;31.026;2023-12-04T09:41:30;1029.4;;;0.1;65.6
55858;BME280;41779;52.360;31.026;2023-12-04T09:47:04;1029.3;;;0.1;65.7
55858;BME280;41779;52.360;31.026;2023-12-04T09:51:24;1029.3;;;0.2;65.6
55858;BME280;41779;52.360;31.026;2023-12-04T09:57:03;1029.3;;;0.2;65.6
55858;BME280;41779;52.360;31.026;2023-12-04T10:02:02;1029.3;;;0.3;65.6
55858;BME280;41779;52.360;31.026;2023-12-04T10:06:58;1029.3;;;0.3;65.7
55858;BME280;41779;52.360;31.026;2023-12-04T10:11:28;1029.3;;;0.3;65.7
55858;BME280;41779;52.360;31.026;2023-12-04T10:16:37;1029.3;;;0.4;65.6
55858;BME280;41779;52.360;31.026;2023-12-04T10:21:32;1029.3;;;0.3;65.8
55858;BME280;41779;52.360;31.026;2023-12-04T10:26:24;1029.3;;;0.3;65.9
55858;BME280;41779;52.360;31.026;2023-12-04T10:31:24;1029.3;;;0.3;65.8
55858;BME280;41779;52.360;31.026;2023-12-04T10:36:42;1029.3;;;0.3;65.8
55858;BME280;41779;52.360;31.026;2023-12-04T10:42:01;1029.3;;;0.4;65.7
55858;BME280;41779;52.360;31.026;2023-12-04T10:47:04;1029.2;;;0.5;65.5
55858;BME280;41779;52.360;31.026;2023-12-04T10:52:02;1029.2;;;0.5;65.3
55858;BME280;41779;52.360;31.026;2023-12-04T10:56:33;1029.2;;;0.5;65.2
55858;BME280;41779;52.360;31.026;2023-12-04T11:02:00;1029.2;;;0.5;64.8
55858;BME280;41779;52.360;31.026;2023-12-04T11:06:35;1029.2;;;0.6;64.6
55858;BME280;41779;52.360;31.026;2023-12-04T11:11:34;1029.2;;;0.6;64.6
55858;BME280;41779;52.360;31.026;2023-12-04T11:16:54;1029.2;;;0.6;64.2
55858;BME280;41779;52.360;31.026;2023-12-04T11:21:32;1029.2;;;0.6;63.6
55858;BME280;41779;52.360;31.026;2023-12-04T11:26:22;1029.2;;;0.7;63.6
55858;BME280;41779;52.360;31.026;2023-12-04T11:31:52;1029.1;;;0.7;63.4
55858;BME280;41779;52.360;31.026;2023-12-04T11:37:04;1029.1;;;0.8;62.8
55858;BME280;41779;52.360;31.026;2023-12-04T11:42:05;1029.1;;;0.8;62.8
55858;BME280;41779;52.360;31.026;2023-12-04T11:46:32;1029;;;0.9;62.6
55858;BME280;41779;52.360;31.026;2023-12-04T11:51:50;1029;;;1;62.6
55858;BME280;41779;52.360;31.026;2023-12-04T11:56:26;1029;;;1.1;62.1
55858;BME280;41779;52.360;31.026;2023-12-04T12:01:24;1029;;;1.1;62
55858;BME280;41779;52.360;31.026;2023-12-04T12:06:26;1028.9;;;1.1;61.9
55858;BME280;41779;52.360;31.026;2023-12-04T12:11:24;1029;;;1.1;61.6
55858;BME280;41779;52.360;31.026;2023-12-04T12:16:46;1028.9;;;1.2;61.7
55858;BME280;41779;52.360;31.026;2023-12-04T12:21:34;1028.9;;;1.2;61.8
55858;BME280;41779;52.360;31.026;2023-12-04T12:26:53;1028.9;;;1.2;61.5
55858;BME280;41779;52.360;31.026;2023-12-04T12:32:04;1028.9;;;1.2;61.6
55858;BME280;41779;52.360;31.026;2023-12-04T12:36:50;1029;;;1.2;61.6
55858;BME280;41779;52.360;31.026;2023-12-04T12:42:00;1029;;;1.2;61.6
55858;BME280;41779;52.360;31.026;2023-12-04T12:46:26;1029;;;1.1;61.7
55858;BME280;41779;52.360;31.026;2023-12-04T12:51:46;1029;;;1;62
55858;BME280;41779;52.360;31.026;2023-12-04T12:56:36;1028.9;;;1;62
55858;BME280;41779;52.360;31.026;2023-12-04T13:01:22;1028.9;;;1;61.9
55858;BME280;41779;52.360;31.026;2023-12-04T13:07:04;1028.9;;;1;61.7
55858;BME280;41779;52.360;31.026;2023-12-04T13:11:34;1028.9;;;0.9;61.5
55858;BME280;41779;52.360;31.026;2023-12-04T13:17:06;1028.9;;;0.9;61.7
55858;BME280;41779;52.360;31.026;2023-12-04T13:22:06;1028.9;;;0.9;61.7
55858;BME280;41779;52.360;31.026;2023-12-04T13:26:42;1028.9;;;0.9;61.6
55858;BME280;41779;52.360;31.026;2023-12-04T13:31:40;1028.9;;;0.9;61.6
55858;BME280;41779;52.360;31.026;2023-12-04T13:37:06;1029;;;0.9;61.6
55858;BME280;41779;52.360;31.026;2023-12-04T13:41:36;1029.1;;;0.9;61.5
55858;BME280;41779;52.360;31.026;2023-12-04T13:46:24;1029.2;;;0.9;61.4
55858;BME280;41779;52.360;31.026;2023-12-04T13:51:42;1029.3;;;0.9;61.4
55858;BME280;41779;52.360;31.026;2023-12-04T13:56:46;1029.3;;;0.9;61.3
55858;BME280;41779;52.360;31.026;2023-12-04T14:01:24;1029.3;;;0.8;61.3
55858;BME280;41779;52.360;31.026;2023-12-04T14:06:54;1029.3;;;0.7;61.6
55858;BME280;41779;52.360;31.026;2023-12-04T14:12:04;1029.4;;;0.7;61.4
55858;BME280;41779;52.360;31.026;2023-12-04T14:16:58;1029.4;;;0.6;61.6
55858;BME280;41779;52.360;31.026;2023-12-04T14:21:44;1029.4;;;0.6;61.6
55858;BME280;41779;52.360;31.026;2023-12-04T14:26:52;1029.5;;;0.6;61.7
55858;BME280;41779;52.360;31.026;2023-12-04T14:31:32;1029.4;;;0.6;61.7
55858;BME280;41779;52.360;31.026;2023-12-04T14:36:24;1029.4;;;0.6;62
55858;BME280;41779;52.360;31.026;2023-12-04T14:41:42;1029.4;;;0.6;61.8
55858;BME280;41779;52.360;31.026;2023-12-04T14:46:26;1029.4;;;0.7;61.8
55858;BME280;41779;52.360;31.026;2023-12-04T14:51:26;1029.4;;;0.7;61.7
55858;BME280;41779;52.360;31.026;2023-12-04T14:56:46;1029.4;;;0.6;61.8
55858;BME280;41779;52.360;31.026;2023-12-04T15:02:06;1029.4;;;0.5;62.1
55858;BME280;41779;52.360;31.026;2023-12-04T15:17:06;1029.6;;;0.5;62.2
55858;BME280;41779;52.360;31.026;2023-12-04T15:21:22;1029.7;;;0.5;62.1
55858;BME280;41779;52.360;31.026;2023-12-04T15:27:02;1029.7;;;0.5;62.1
55858;BME280;41779;52.360;31.026;2023-12-04T15:31:48;1029.7;;;0.5;62.2
55858;BME280;41779;52.360;31.026;2023-12-04T15:36:42;1029.7;;;0.4;62.5
55858;BME280;41779;52.360;31.026;2023-12-04T15:41:30;1029.7;;;0.4;62.4
55858;BME280;41779;52.360;31.026;2023-12-04T15:46:52;1029.8;;;0.4;62.6
55858;BME280;41779;52.360;31.026;2023-12-04T15:52:06;1029.8;;;0.5;62.5
55858;BME280;41779;52.360;31.026;2023-12-04T15:57:04;1029.8;;;0.5;62.5
55858;BME280;41779;52.360;31.026;2023-12-04T16:01:26;1029.8;;;0.6;62.4
55858;BME280;41779;52.360;31.026;2023-12-04T16:06:42;1029.7;;;0.6;62.4
55858;BME280;41779;52.360;31.026;2023-12-04T16:11:48;1029.7;;;0.6;62.4
55858;BME280;41779;52.360;31.026;2023-12-04T16:16:52;1029.7;;;0.6;62.4
55858;BME280;41779;52.360;31.026;2023-12-04T16:21:42;1029.7;;;0.7;62.3
55858;BME280;41779;52.360;31.026;2023-12-04T16:26:44;1029.7;;;0.7;62.4
55858;BME280;41779;52.360;31.026;2023-12-04T16:31:52;1029.7;;;0.7;62.2
55858;BME280;41779;52.360;31.026;2023-12-04T16:37:08;1029.7;;;0.7;62.4
55858;BME280;41779;52.360;31.026;2023-12-04T16:42:04;1029.7;;;0.7;62.2
55858;BME280;41779;52.360;31.026;2023-12-04T16:46:44;1029.7;;;0.8;62.3
55858;BME280;41779;52.360;31.026;2023-12-04T16:52:04;1029.7;;;0.7;62.2
55858;BME280;41779;52.360;31.026;2023-12-04T16:56:42;1029.7;;;0.8;62.2
55858;BME280;41779;52.360;31.026;2023-12-04T17:02:00;1029.7;;;0.8;62.2
55858;BME280;41779;52.360;31.026;2023-12-04T17:07:04;1029.7;;;0.8;62.4
55858;BME280;41779;52.360;31.026;2023-12-04T17:11:24;1029.8;;;0.8;62.4
55858;BME280;41779;52.360;31.026;2023-12-04T17:16:22;1029.8;;;0.8;62.5
55858;BME280;41779;52.360;31.026;2023-12-04T17:21:24;1029.8;;;0.8;62.6
55858;BME280;41779;52.360;31.026;2023-12-04T17:26:48;1029.9;;;0.8;62.7
55858;BME280;41779;52.360;31.026;2023-12-04T17:31:22;1029.9;;;0.8;62.9
55858;BME280;41779;52.360;31.026;2023-12-04T17:36:22;1029.9;;;0.8;62.9
55858;BME280;41779;52.360;31.026;2023-12-04T17:42:08;1030;;;0.8;62.9
55858;BME280;41779;52.360;31.026;2023-12-04T17:47:04;1030;;;0.8;63.1
55858;BME280;41779;52.360;31.026;2023-12-04T17:51:22;1030.1;;;0.7;63
55858;BME280;41779;52.360;31.026;2023-12-04T17:56:50;1030.2;;;0.7;62.8
55858;BME280;41779;52.360;31.026;2023-12-04T18:01:22;1030.2;;;0.6;63.2
55858;BME280;41779;52.360;31.026;2023-12-04T18:06:46;1030.2;;;0.6;63.1
55858;BME280;41779;52.360;31.026;2023-12-04T18:11:54;1030.3;;;0.6;63.3
55858;BME280;41779;52.360;31.026;2023-12-04T18:17:06;1030.3;;;0.6;63.2
55858;BME280;41779;52.360;31.026;2023-12-04T18:22:02;1030.2;;;0.7;63.3
55858;BME280;41779;52.360;31.026;2023-12-04T18:26:24;1030.2;;;0.7;63
55858;BME280;41779;52.360;31.026;2023-12-04T18:32:09;1030.2;;;0.7;62.8
55858;BME280;41779;52.360;31.026;2023-12-04T18:37:05;1030.1;;;0.7;62.4
55858;BME280;41779;52.360;31.026;2023-12-04T18:42:06;1030.1;;;0.7;62.5
55858;BME280;41779;52.360;31.026;2023-12-04T18:46:32;1030.2;;;0.7;62.4
55858;BME280;41779;52.360;31.026;2023-12-04T18:51:24;1030.1;;;0.8;62.2
55858;BME280;41779;52.360;31.026;2023-12-04T18:57:06;1030.2;;;0.7;62
55858;BME280;41779;52.360;31.026;2023-12-04T19:01:24;1030.2;;;0.7;61.9
55858;BME280;41779;52.360;31.026;2023-12-04T19:06:42;1030.2;;;0.7;61.7
55858;BME280;41779;52.360;31.026;2023-12-04T19:11:24;1030.3;;;0.7;61.6
55858;BME280;41779;52.360;31.026;2023-12-04T19:16:24;1030.3;;;0.7;61.6
55858;BME280;41779;52.360;31.026;2023-12-04T19:22:06;1030.3;;;0.7;61.5
55858;BME280;41779;52.360;31.026;2023-12-04T19:27:04;1030.3;;;0.7;61.6
55858;BME280;41779;52.360;31.026;2023-12-04T19:31:34;1030.4;;;0.7;61.5
55858;BME280;41779;52.360;31.026;2023-12-04T19:37:04;1030.4;;;0.8;61.5
55858;BME280;41779;52.360;31.026;2023-12-04T19:41:31;1030.4;;;0.8;61.3
55858;BME280;41779;52.360;31.026;2023-12-04T19:46:46;1030.4;;;0.8;61.3
55858;BME280;41779;52.360;31.026;2023-12-04T19:51:26;1030.4;;;0.9;61.2
55858;BME280;41779;52.360;31.026;2023-12-04T19:57:04;1030.4;;;0.9;60.9
55858;BME280;41779;52.360;31.026;2023-12-04T20:02:00;1030.5;;;0.9;61
55858;BME280;41779;52.360;31.026;2023-12-04T20:06:34;1030.5;;;0.9;61
55858;BME280;41779;52.360;31.026;2023-12-04T20:12:06;1030.5;;;0.9;60.8
55858;BME280;41779;52.360;31.026;2023-12-04T20:16:46;1030.5;;;0.9;60.7
55858;BME280;41779;52.360;31.026;2023-12-04T20:22:02;1030.6;;;0.9;60.6
55858;BME280;41779;52.360;31.026;2023-12-04T20:26:36;1030.6;;;0.9;60.6
55858;BME280;41779;52.360;31.026;2023-12-04T20:31:22;1030.6;;;0.9;60.7
55858;BME280;41779;52.360;31.026;2023-12-04T20:37:06;1030.6;;;0.8;60.7
55858;BME280;41779;52.360;31.026;2023-12-04T20:41:32;1030.6;;;0.8;60.8
55858;BME280;41779;52.360;31.026;2023-12-04T20:46:24;1030.6;;;0.8;60.8
55858;BME280;41779;52.360;31.026;2023-12-04T20:51:28;1030.6;;;0.7;60.9
55858;BME280;41779;52.360;31.026;2023-12-04T20:57:00;1030.6;;;0.7;61.1
55858;BME280;41779;52.360;31.026;2023-12-04T21:02:06;1030.7;;;0.7;61.1
55858;BME280;41779;52.360;31.026;2023-12-04T21:07:06;1030.7;;;0.7;61.2
55858;BME280;41779;52.360;31.026;2023-12-04T21:11:50;1030.6;;;0.6;61.2
55858;BME280;41779;52.360;31.026;2023-12-04T21:17:02;1030.6;;;0.6;61.3
55858;BME280;41779;52.360;31.026;2023-12-04T21:21:34;1030.6;;;0.6;61.4
55858;BME280;41779;52.360;31.026;2023-12-04T21:26:42;1030.6;;;0.6;61.6
55858;BME280;41779;52.360;31.026;2023-12-04T21:31:34;1030.6;;;0.5;61.8
55858;BME280;41779;52.360;31.026;2023-12-04T21:36:34;1030.6;;;0.5;61.8
55858;BME280;41779;52.360;31.026;2023-12-04T21:41:24;1030.6;;;0.5;62.1
55858;BME280;41779;52.360;31.026;2023-12-04T21:46:34;1030.6;;;0.4;62.1
55858;BME280;41779;52.360;31.026;2023-12-04T21:52:06;1030.7;;;0.4;62.3
55858;BME280;41779;52.360;31.026;2023-12-04T21:57:06;1030.7;;;0.4;62.5
55858;BME280;41779;52.360;31.026;2023-12-04T22:02:00;1030.7;;;0.5;62.6
55858;BME280;41779;52.360;31.026;2023-12-04T22:06:24;1030.7;;;0.5;62.6
55858;BME280;41779;52.360;31.026;2023-12-04T22:11:28;1030.7;;;0.5;62.9
55858;BME280;41779;52.360;31.026;2023-12-04T22:16:26;1030.7;;;0.5;63.1
55858;BME280;41779;52.360;31.026;2023-12-04T22:22:06;1030.7;;;0.5;63.3
55858;BME280;41779;52.360;31.026;2023-12-04T22:26:54;1030.7;;;0.4;63.7
55858;BME280;41779;52.360;31.026;2023-12-04T22:32:06;1030.7;;;0.4;63.8
55858;BME280;41779;52.360;31.026;2023-12-04T22:37:00;1030.7;;;0.4;64
55858;BME280;41779;52.360;31.026;2023-12-04T22:42:06;1030.8;;;0.4;64.2
55858;BME280;41779;52.360;31.026;2023-12-04T22:47:06;1030.7;;;0.4;64.3
55858;BME280;41779;52.360;31.026;2023-12-04T22:51:34;1030.7;;;0.4;64.3
55858;BME280;41779;52.360;31.026;2023-12-04T22:57:02;1030.7;;;0.5;64.4
55858;BME280;41779;52.360;31.026;2023-12-04T23:01:26;1030.8;;;0.5;64.4
55858;BME280;41779;52.360;31.026;2023-12-04T23:07:06;1030.8;;;0.5;64.3
55858;BME280;41779;52.360;31.026;2023-12-04T23:11:54;1030.7;;;0.5;64.2
55858;BME280;41779;52.360;31.026;2023-12-04T23:16:52;1030.7;;;0.4;64.4
55858;BME280;41779;52.360;31.026;2023-12-04T23:21:52;1030.7;;;0.4;64.5
55858;BME280;41779;52.360;31.026;2023-12-04T23:26:34;1030.7;;;0.5;64.3
55858;BME280;41779;52.360;31.026;2023-12-04T23:32:07;1030.7;;;0.4;64.3
55858;BME280;41779;52.360;31.026;2023-12-04T23:37:06;1030.7;;;0.4;64.3
55858;BME280;41779;52.360;31.026;2023-12-04T23:41:24;1030.8;;;0.4;64.5
55858;BME280;41779;52.360;31.026;2023-12-04T23:46:24;1030.8;;;0.4;64.3
55858;BME280;41779;52.360;31.026;2023-12-04T23:51:32;1030.9;;;0.4;64.1
55858;BME280;41779;52.360;31.026;2023-12-04T23:56:30;1030.9;;;0.4;64.3
